sensor_id;sensor_type;location;lat;lon;timestamp;pressure;altitude;pressure_sealevel;temperature;humidity
86115;BME280;76768;49.464;10.882;2024-03-23T00:55:50;97042.03;;;9.38;65.29
86115;BME280;76768;49.464;10.882;2024-03-23T00:58:15;97043.59;;;9.39;65.36
86115;BME280;76768;49.464;10.882;2024-03-23T01:00:41;97023.94;;;9.33;65.08
86115;BME280;76768;49.464;10.882;2024-03-23T01:03:06;97020.75;;;9.35;65.54
86115;BME280;76768;49.464;10.882;2024-03-23T01:05:31;97012.94;;;9.30;65.44
86115;BME280;76768;49.464;10.882;2024-03-23T01:07:56;97014.53;;;9.31;66.17
86115;BME280;76768;49.464;10.882;2024-03-23T01:10:22;97013.84;;;9.27;66.18
86115;BME280;76768;49.464;10.882;2024-03-23T01:12:47;97013.19;;;9.23;65.85
86115;BME280;76768;49.464;10.882;2024-03-23T01:15:12;97012.50;;;9.18;65.73
86115;BME280;76768;49.464;10.882;2024-03-23T01:17:38;97013.91;;;9.10;66.14
86115;BME280;76768;49.464;10.882;2024-03-23T01:20:03;97000.44;;;8.96;65.92
86115;BME280;76768;49.464;10.882;2024-03-23T01:22:29;97005.00;;;8.90;66.50
86115;BME280;76768;49.464;10.882;2024-03-23T01:24:54;97001.38;;;8.77;67.33
86115;BME280;76768;49.464;10.882;2024-03-23T01:27:20;97002.00;;;8.68;67.80
86115;BME280;76768;49.464;10.882;2024-03-23T01:29:45;96996.88;;;8.54;67.69
86115;BME280;76768;49.464;10.882;2024-03-23T01:32:10;96996.97;;;8.50;68.10
86115;BME280;76768;49.464;10.882;2024-03-23T01:34:35;96985.19;;;8.46;68.03
86115;BME280;76768;49.464;10.882;2024-03-23T01:37:01;96990.06;;;8.42;67.79
86115;BME280;76768;49.464;10.882;2024-03-23T01:39:26;96979.84;;;8.39;68.35
86115;BME280;76768;49.464;10.882;2024-03-23T01:41:52;96990.91;;;8.39;68.49
86115;BME280;76768;49.464;10.882;2024-03-23T01:44:17;96978.97;;;8.42;68.65
86115;BME280;76768;49.464;10.882;2024-03-23T01:46:43;96980.97;;;8.41;69.12
86115;BME280;76768;49.464;10.882;2024-03-23T01:49:09;96971.00;;;8.44;68.49
86115;BME280;76768;49.464;10.882;2024-03-23T01:51:35;96968.03;;;8.51;69.39
86115;BME280;76768;49.464;10.882;2024-03-23T01:54:04;96970.44;;;8.65;68.53
86115;BME280;76768;49.464;10.882;2024-03-23T01:56:34;96957.22;;;8.86;68.71
86115;BME280;76768;49.464;10.882;2024-03-23T01:59:03;96959.00;;;9.05;67.74
86115;BME280;76768;49.464;10.882;2024-03-23T02:01:28;96952.41;;;9.15;67.33
86115;BME280;76768;49.464;10.882;2024-03-23T02:03:54;96951.97;;;9.30;67.37
86115;BME280;76768;49.464;10.882;2024-03-23T02:06:19;96947.75;;;9.38;67.28
86115;BME280;76768;49.464;10.882;2024-03-23T02:08:44;96941.22;;;9.45;66.48
86115;BME280;76768;49.464;10.882;2024-03-23T02:11:10;96942.66;;;9.49;66.53
86115;BME280;76768;49.464;10.882;2024-03-23T02:13:35;96937.66;;;9.57;66.60
86115;BME280;76768;49.464;10.882;2024-03-23T02:16:01;96932.00;;;9.60;66.66
86115;BME280;76768;49.464;10.882;2024-03-23T02:18:26;96912.91;;;9.62;66.51
86115;BME280;76768;49.464;10.882;2024-03-23T02:20:51;96917.69;;;9.62;66.76
86115;BME280;76768;49.464;10.882;2024-03-23T02:23:17;96916.03;;;9.64;66.21
86115;BME280;76768;49.464;10.882;2024-03-23T02:25:45;96902.81;;;9.68;65.93
86115;BME280;76768;49.464;10.882;2024-03-23T02:28:11;96901.59;;;9.70;66.53
86115;BME280;76768;49.464;10.882;2024-03-23T02:30:36;96885.84;;;9.66;66.15
86115;BME280;76768;49.464;10.882;2024-03-23T02:33:02;96887.53;;;9.64;66.50
86115;BME280;76768;49.464;10.882;2024-03-23T02:35:27;96884.19;;;9.69;66.10
86115;BME280;76768;49.464;10.882;2024-03-23T02:37:53;96897.59;;;9.71;66.84
86115;BME280;76768;49.464;10.882;2024-03-23T02:40:19;96885.72;;;9.70;66.85
86115;BME280;76768;49.464;10.882;2024-03-23T02:42:45;96860.56;;;9.64;66.77
86115;BME280;76768;49.464;10.882;2024-03-23T02:45:10;96875.66;;;9.63;67.09
86115;BME280;76768;49.464;10.882;2024-03-23T02:47:36;96870.09;;;9.63;67.30
86115;BME280;76768;49.464;10.882;2024-03-23T02:50:01;96860.88;;;9.66;66.69
86115;BME280;76768;49.464;10.882;2024-03-23T02:52:26;96868.00;;;9.67;66.76
86115;BME280;76768;49.464;10.882;2024-03-23T02:54:51;96849.47;;;9.64;66.74
86115;BME280;76768;49.464;10.882;2024-03-23T02:57:17;96850.13;;;9.68;66.63
86115;BME280;76768;49.464;10.882;2024-03-23T02:59:42;96846.88;;;9.70;66.41
86115;BME280;76768;49.464;10.882;2024-03-23T03:02:07;96846.78;;;9.74;66.18
86115;BME280;76768;49.464;10.882;2024-03-23T03:04:33;96837.34;;;9.71;66.48
86115;BME280;76768;49.464;10.882;2024-03-23T03:06:58;96834.13;;;9.73;66.51
86115;BME280;76768;49.464;10.882;2024-03-23T03:09:23;96838.44;;;9.74;66.28
86115;BME280;76768;49.464;10.882;2024-03-23T03:11:49;96837.69;;;9.73;66.55
86115;BME280;76768;49.464;10.882;2024-03-23T03:14:14;96830.59;;;9.72;66.41
86115;BME280;76768;49.464;10.882;2024-03-23T03:16:39;96831.00;;;9.71;66.77
86115;BME280;76768;49.464;10.882;2024-03-23T03:19:04;96822.25;;;9.72;66.75
86115;BME280;76768;49.464;10.882;2024-03-23T03:21:31;96811.59;;;9.71;66.49
86115;BME280;76768;49.464;10.882;2024-03-23T03:23:57;96800.19;;;9.68;66.14
86115;BME280;76768;49.464;10.882;2024-03-23T03:26:23;96791.53;;;9.66;66.38
86115;BME280;76768;49.464;10.882;2024-03-23T03:28:48;96792.63;;;9.69;65.74
86115;BME280;76768;49.464;10.882;2024-03-23T03:31:17;96797.41;;;9.68;66.38
86115;BME280;76768;49.464;10.882;2024-03-23T03:33:43;96794.00;;;9.64;66.81
86115;BME280;76768;49.464;10.882;2024-03-23T03:36:08;96792.88;;;9.62;66.90
86115;BME280;76768;49.464;10.882;2024-03-23T03:38:34;96794.56;;;9.59;66.66
86115;BME280;76768;49.464;10.882;2024-03-23T03:41:03;96785.59;;;9.55;67.05
86115;BME280;76768;49.464;10.882;2024-03-23T03:43:29;96780.34;;;9.57;66.83
86115;BME280;76768;49.464;10.882;2024-03-23T03:45:55;96779.13;;;9.58;66.19
86115;BME280;76768;49.464;10.882;2024-03-23T03:48:21;96766.03;;;9.59;66.54
86115;BME280;76768;49.464;10.882;2024-03-23T03:50:46;96753.72;;;9.60;66.54
86115;BME280;76768;49.464;10.882;2024-03-23T03:53:11;96753.63;;;9.63;66.79
86115;BME280;76768;49.464;10.882;2024-03-23T03:55:37;96727.53;;;9.61;66.54
86115;BME280;76768;49.464;10.882;2024-03-23T03:58:02;96728.88;;;9.56;66.49
86115;BME280;76768;49.464;10.882;2024-03-23T04:00:28;96708.06;;;9.52;66.70
86115;BME280;76768;49.464;10.882;2024-03-23T04:02:53;96722.13;;;9.57;66.43
86115;BME280;76768;49.464;10.882;2024-03-23T04:05:18;96715.16;;;9.53;66.95
86115;BME280;76768;49.464;10.882;2024-03-23T04:07:45;96704.94;;;9.50;66.36
86115;BME280;76768;49.464;10.882;2024-03-23T04:10:10;96707.41;;;9.48;66.46
86115;BME280;76768;49.464;10.882;2024-03-23T04:12:36;96710.63;;;9.46;66.82
86115;BME280;76768;49.464;10.882;2024-03-23T04:15:01;96704.41;;;9.42;66.90
86115;BME280;76768;49.464;10.882;2024-03-23T04:17:29;96709.06;;;9.45;67.28
86115;BME280;76768;49.464;10.882;2024-03-23T04:19:57;96714.09;;;9.37;67.12
86115;BME280;76768;49.464;10.882;2024-03-23T04:22:22;96721.97;;;9.39;67.26
86115;BME280;76768;49.464;10.882;2024-03-23T04:24:49;96725.94;;;9.38;67.62
86115;BME280;76768;49.464;10.882;2024-03-23T04:27:15;96722.09;;;9.35;67.92
86115;BME280;76768;49.464;10.882;2024-03-23T04:29:40;96723.09;;;9.29;67.79
86115;BME280;76768;49.464;10.882;2024-03-23T04:32:05;96728.63;;;9.29;69.03
86115;BME280;76768;49.464;10.882;2024-03-23T04:34:31;96732.53;;;9.31;68.83
86115;BME280;76768;49.464;10.882;2024-03-23T04:36:58;96733.59;;;9.34;68.21
86115;BME280;76768;49.464;10.882;2024-03-23T04:39:23;96734.84;;;9.33;68.50
86115;BME280;76768;49.464;10.882;2024-03-23T04:41:48;96710.22;;;9.35;68.31
86115;BME280;76768;49.464;10.882;2024-03-23T04:44:14;96708.00;;;9.30;68.46
86115;BME280;76768;49.464;10.882;2024-03-23T04:46:39;96696.16;;;9.29;68.72
86115;BME280;76768;49.464;10.882;2024-03-23T04:49:04;96707.22;;;9.29;68.35
86115;BME280;76768;49.464;10.882;2024-03-23T04:51:35;96708.25;;;9.23;68.74
86115;BME280;76768;49.464;10.882;2024-03-23T04:54:01;96705.38;;;9.13;68.81
86115;BME280;76768;49.464;10.882;2024-03-23T04:56:27;96708.16;;;9.13;68.92
86115;BME280;76768;49.464;10.882;2024-03-23T04:58:52;96692.75;;;9.12;69.63
86115;BME280;76768;49.464;10.882;2024-03-23T05:01:18;96703.84;;;9.12;69.14
86115;BME280;76768;49.464;10.882;2024-03-23T05:03:44;96686.78;;;9.01;69.16
86115;BME280;76768;49.464;10.882;2024-03-23T05:06:09;96685.31;;;9.09;68.64
86115;BME280;76768;49.464;10.882;2024-03-23T05:08:34;96686.56;;;9.08;69.04
86115;BME280;76768;49.464;10.882;2024-03-23T05:10:59;96690.88;;;9.09;69.15
86115;BME280;76768;49.464;10.882;2024-03-23T05:13:25;96680.91;;;9.12;69.76
86115;BME280;76768;49.464;10.882;2024-03-23T05:15:54;96679.00;;;9.09;69.11
86115;BME280;76768;49.464;10.882;2024-03-23T05:18:20;96677.66;;;9.13;69.50
86115;BME280;76768;49.464;10.882;2024-03-23T05:20:45;96675.88;;;9.20;69.31
86115;BME280;76768;49.464;10.882;2024-03-23T05:23:11;96667.00;;;9.25;69.47
86115;BME280;76768;49.464;10.882;2024-03-23T05:25:36;96658.38;;;9.23;71.24
86115;BME280;76768;49.464;10.882;2024-03-23T05:28:01;96651.91;;;9.26;71.47
86115;BME280;76768;49.464;10.882;2024-03-23T05:30:27;96655.03;;;9.28;71.07
86115;BME280;76768;49.464;10.882;2024-03-23T05:32:53;96652.84;;;9.23;71.43
86115;BME280;76768;49.464;10.882;2024-03-23T05:35:18;96663.91;;;9.23;70.82
86115;BME280;76768;49.464;10.882;2024-03-23T05:37:43;96671.44;;;9.22;70.94
86115;BME280;76768;49.464;10.882;2024-03-23T05:40:10;96664.81;;;9.20;71.33
86115;BME280;76768;49.464;10.882;2024-03-23T05:42:35;96659.56;;;9.22;70.98
86115;BME280;76768;49.464;10.882;2024-03-23T05:45:01;96673.19;;;9.29;70.78
86115;BME280;76768;49.464;10.882;2024-03-23T05:47:26;96671.41;;;9.35;70.64
86115;BME280;76768;49.464;10.882;2024-03-23T05:49:51;96665.06;;;9.34;70.42
86115;BME280;76768;49.464;10.882;2024-03-23T05:52:17;96675.25;;;9.37;70.55
86115;BME280;76768;49.464;10.882;2024-03-23T05:54:42;96675.38;;;9.34;71.03
86115;BME280;76768;49.464;10.882;2024-03-23T05:57:09;96673.06;;;9.32;72.65
86115;BME280;76768;49.464;10.882;2024-03-23T05:59:34;96678.75;;;9.29;72.98
86115;BME280;76768;49.464;10.882;2024-03-23T06:01:59;96683.31;;;9.23;74.00
86115;BME280;76768;49.464;10.882;2024-03-23T06:04:25;96683.56;;;9.15;74.91
86115;BME280;76768;49.464;10.882;2024-03-23T06:06:51;96674.59;;;9.11;76.44
86115;BME280;76768;49.464;10.882;2024-03-23T06:09:17;96683.47;;;9.06;76.94
86115;BME280;76768;49.464;10.882;2024-03-23T06:11:42;96666.50;;;9.04;76.40
86115;BME280;76768;49.464;10.882;2024-03-23T06:14:08;96662.19;;;9.03;76.72
86115;BME280;76768;49.464;10.882;2024-03-23T06:16:33;96658.19;;;9.04;77.81
86115;BME280;76768;49.464;10.882;2024-03-23T06:18:58;96658.66;;;9.03;78.26
86115;BME280;76768;49.464;10.882;2024-03-23T06:21:24;96654.47;;;8.98;78.67
86115;BME280;76768;49.464;10.882;2024-03-23T06:23:53;96667.97;;;8.96;80.06
86115;BME280;76768;49.464;10.882;2024-03-23T06:26:19;96666.09;;;8.93;79.80
86115;BME280;76768;49.464;10.882;2024-03-23T06:28:45;96676.63;;;8.98;80.04
86115;BME280;76768;49.464;10.882;2024-03-23T06:31:11;96667.84;;;9.00;79.80
86115;BME280;76768;49.464;10.882;2024-03-23T06:33:36;96667.06;;;8.99;80.68
86115;BME280;76768;49.464;10.882;2024-03-23T06:36:01;96672.38;;;9.06;81.00
86115;BME280;76768;49.464;10.882;2024-03-23T06:38:28;96681.13;;;9.05;80.39
86115;BME280;76768;49.464;10.882;2024-03-23T06:40:53;96659.72;;;9.05;80.49
86115;BME280;76768;49.464;10.882;2024-03-23T06:43:19;96665.16;;;9.09;80.81
86115;BME280;76768;49.464;10.882;2024-03-23T06:45:44;96658.84;;;9.08;81.83
86115;BME280;76768;49.464;10.882;2024-03-23T06:48:09;96649.75;;;9.08;80.90
86115;BME280;76768;49.464;10.882;2024-03-23T06:50:35;96662.63;;;9.14;80.48
86115;BME280;76768;49.464;10.882;2024-03-23T06:53:00;96658.63;;;9.15;80.51
86115;BME280;76768;49.464;10.882;2024-03-23T06:55:27;96670.34;;;9.20;79.81
86115;BME280;76768;49.464;10.882;2024-03-23T06:57:53;96672.31;;;9.32;77.40
86115;BME280;76768;49.464;10.882;2024-03-23T07:00:18;96678.25;;;9.43;75.61
86115;BME280;76768;49.464;10.882;2024-03-23T07:02:44;96669.66;;;9.50;75.37
86115;BME280;76768;49.464;10.882;2024-03-23T07:05:12;96673.09;;;9.54;73.57
86115;BME280;76768;49.464;10.882;2024-03-23T07:07:40;96651.53;;;9.58;72.94
86115;BME280;76768;49.464;10.882;2024-03-23T07:10:06;96677.75;;;9.57;73.77
86115;BME280;76768;49.464;10.882;2024-03-23T07:12:31;96681.75;;;9.56;73.62
86115;BME280;76768;49.464;10.882;2024-03-23T07:14:57;96687.41;;;9.53;74.72
86115;BME280;76768;49.464;10.882;2024-03-23T07:17:22;96690.66;;;9.51;74.32
86115;BME280;76768;49.464;10.882;2024-03-23T07:19:47;96693.09;;;9.49;74.68
86115;BME280;76768;49.464;10.882;2024-03-23T07:22:13;96693.97;;;9.46;74.83
86115;BME280;76768;49.464;10.882;2024-03-23T07:24:39;96698.88;;;9.42;74.59
86115;BME280;76768;49.464;10.882;2024-03-23T07:27:05;96705.34;;;9.39;75.76
86115;BME280;76768;49.464;10.882;2024-03-23T07:29:30;96713.06;;;9.44;75.16
86115;BME280;76768;49.464;10.882;2024-03-23T07:31:55;96695.25;;;9.32;75.13
86115;BME280;76768;49.464;10.882;2024-03-23T07:34:21;96702.88;;;9.41;75.20
86115;BME280;76768;49.464;10.882;2024-03-23T07:36:46;96712.41;;;9.40;75.63
86115;BME280;76768;49.464;10.882;2024-03-23T07:39:11;96712.41;;;9.40;75.65
86115;BME280;76768;49.464;10.882;2024-03-23T07:41:37;96717.63;;;9.38;77.67
86115;BME280;76768;49.464;10.882;2024-03-23T07:44:02;96728.16;;;9.43;75.85
86115;BME280;76768;49.464;10.882;2024-03-23T07:46:27;96729.59;;;9.48;76.03
86115;BME280;76768;49.464;10.882;2024-03-23T07:48:52;96731.91;;;9.49;76.66
86115;BME280;76768;49.464;10.882;2024-03-23T07:51:22;96744.31;;;9.57;75.30
86115;BME280;76768;49.464;10.882;2024-03-23T07:53:48;96744.31;;;9.57;75.37
86115;BME280;76768;49.464;10.882;2024-03-23T07:56:14;96746.50;;;9.62;74.84
86115;BME280;76768;49.464;10.882;2024-03-23T07:58:41;96733.94;;;9.71;74.61
86115;BME280;76768;49.464;10.882;2024-03-23T08:01:12;96734.03;;;9.80;74.05
86115;BME280;76768;49.464;10.882;2024-03-23T08:03:39;96736.53;;;9.87;72.99
86115;BME280;76768;49.464;10.882;2024-03-23T08:06:19;96758.66;;;9.78;76.11
86115;BME280;76768;49.464;10.882;2024-03-23T08:08:57;96788.44;;;9.64;75.98
86115;BME280;76768;49.464;10.882;2024-03-23T08:11:29;96818.66;;;9.37;77.54
86115;BME280;76768;49.464;10.882;2024-03-23T08:13:55;96831.44;;;8.96;77.63
86115;BME280;76768;49.464;10.882;2024-03-23T08:16:20;96831.53;;;8.67;77.55
86115;BME280;76768;49.464;10.882;2024-03-23T08:18:46;96839.00;;;8.41;75.94
86115;BME280;76768;49.464;10.882;2024-03-23T08:21:11;96840.63;;;8.09;76.25
86115;BME280;76768;49.464;10.882;2024-03-23T08:23:37;96846.00;;;8.16;76.41
86115;BME280;76768;49.464;10.882;2024-03-23T08:26:04;96850.66;;;8.03;76.38
86115;BME280;76768;49.464;10.882;2024-03-23T08:28:30;96864.22;;;7.85;78.12
86115;BME280;76768;49.464;10.882;2024-03-23T08:30:56;96884.16;;;7.92;77.47
86115;BME280;76768;49.464;10.882;2024-03-23T08:33:22;96895.84;;;8.00;77.52
86115;BME280;76768;49.464;10.882;2024-03-23T08:38:19;96926.06;;;8.07;77.71
86115;BME280;76768;49.464;10.882;2024-03-23T08:40:44;96945.28;;;7.98;77.16
86115;BME280;76768;49.464;10.882;2024-03-23T08:43:10;96939.47;;;8.09;75.99
86115;BME280;76768;49.464;10.882;2024-03-23T08:45:35;96940.44;;;8.02;76.46
86115;BME280;76768;49.464;10.882;2024-03-23T08:48:00;96939.66;;;8.02;76.36
86115;BME280;76768;49.464;10.882;2024-03-23T08:50:26;96967.06;;;8.12;75.73
86115;BME280;76768;49.464;10.882;2024-03-23T08:52:51;96956.84;;;8.09;76.42
86115;BME280;76768;49.464;10.882;2024-03-23T08:55:16;96955.13;;;7.99;74.96
86115;BME280;76768;49.464;10.882;2024-03-23T08:57:41;96985.75;;;7.92;74.08
86115;BME280;76768;49.464;10.882;2024-03-23T09:00:07;96980.78;;;7.83;74.60
86115;BME280;76768;49.464;10.882;2024-03-23T09:02:34;96987.63;;;7.79;74.45
86115;BME280;76768;49.464;10.882;2024-03-23T09:04:59;96981.75;;;7.93;74.03
86115;BME280;76768;49.464;10.882;2024-03-23T09:07:29;96987.81;;;8.04;73.74
86115;BME280;76768;49.464;10.882;2024-03-23T09:09:55;96991.34;;;8.21;74.01
86115;BME280;76768;49.464;10.882;2024-03-23T09:12:20;97005.19;;;8.37;73.71
86115;BME280;76768;49.464;10.882;2024-03-23T09:14:45;97010.44;;;8.48;70.54
86115;BME280;76768;49.464;10.882;2024-03-23T09:17:10;97003.22;;;8.38;70.33
86115;BME280;76768;49.464;10.882;2024-03-23T09:19:36;97030.19;;;8.50;69.56
86115;BME280;76768;49.464;10.882;2024-03-23T09:22:01;97029.19;;;8.57;67.40
86115;BME280;76768;49.464;10.882;2024-03-23T09:24:26;97035.16;;;8.72;67.84
86115;BME280;76768;49.464;10.882;2024-03-23T09:26:51;97030.25;;;8.92;69.35
86115;BME280;76768;49.464;10.882;2024-03-23T09:29:17;97038.66;;;9.17;67.94
86115;BME280;76768;49.464;10.882;2024-03-23T09:31:43;97040.22;;;9.18;68.12
86115;BME280;76768;49.464;10.882;2024-03-23T09:34:08;97063.81;;;9.10;67.41
86115;BME280;76768;49.464;10.882;2024-03-23T09:36:34;97076.19;;;9.06;67.41
86115;BME280;76768;49.464;10.882;2024-03-23T09:38:59;97075.03;;;8.90;66.89
86115;BME280;76768;49.464;10.882;2024-03-23T09:41:24;97073.34;;;8.93;65.58
86115;BME280;76768;49.464;10.882;2024-03-23T09:43:52;97072.59;;;8.92;64.49
86115;BME280;76768;49.464;10.882;2024-03-23T09:46:19;97065.59;;;8.88;65.34
86115;BME280;76768;49.464;10.882;2024-03-23T09:48:46;97072.84;;;8.98;65.09
86115;BME280;76768;49.464;10.882;2024-03-23T09:51:12;97087.09;;;9.13;64.48
86115;BME280;76768;49.464;10.882;2024-03-23T09:53:37;97095.44;;;9.26;64.41
86115;BME280;76768;49.464;10.882;2024-03-23T09:56:04;97089.50;;;9.40;62.34
86115;BME280;76768;49.464;10.882;2024-03-23T09:58:29;97095.94;;;9.37;62.19
86115;BME280;76768;49.464;10.882;2024-03-23T10:00:54;97095.94;;;9.37;61.52
86115;BME280;76768;49.464;10.882;2024-03-23T10:03:20;97110.34;;;9.32;61.65
86115;BME280;76768;49.464;10.882;2024-03-23T10:05:45;97111.47;;;9.18;61.98
86115;BME280;76768;49.464;10.882;2024-03-23T10:10:38;97106.94;;;9.11;60.81
86115;BME280;76768;49.464;10.882;2024-03-23T10:13:04;97119.00;;;8.88;62.38
86115;BME280;76768;49.464;10.882;2024-03-23T10:15:29;97129.84;;;8.83;62.42
86115;BME280;76768;49.464;10.882;2024-03-23T10:17:55;97130.72;;;8.80;63.02
86115;BME280;76768;49.464;10.882;2024-03-23T10:20:21;97126.31;;;8.82;63.64
86115;BME280;76768;49.464;10.882;2024-03-23T10:22:50;97129.75;;;8.86;62.02
86115;BME280;76768;49.464;10.882;2024-03-23T10:25:22;97123.63;;;8.79;63.04
86115;BME280;76768;49.464;10.882;2024-03-23T10:27:58;97129.84;;;8.83;61.97
86115;BME280;76768;49.464;10.882;2024-03-23T10:30:24;97130.00;;;8.92;61.92
86115;BME280;76768;49.464;10.882;2024-03-23T10:33:06;97141.06;;;8.92;62.63
86115;BME280;76768;49.464;10.882;2024-03-23T10:35:32;97135.28;;;8.86;63.35
86115;BME280;76768;49.464;10.882;2024-03-23T10:37:57;97137.97;;;8.90;63.11
86115;BME280;76768;49.464;10.882;2024-03-23T10:40:23;97145.41;;;8.93;62.74
86115;BME280;76768;49.464;10.882;2024-03-23T10:42:49;97132.59;;;8.99;62.49
86115;BME280;76768;49.464;10.882;2024-03-23T10:45:17;97141.44;;;8.94;61.91
86115;BME280;76768;49.464;10.882;2024-03-23T10:47:42;97127.38;;;9.01;61.06
86115;BME280;76768;49.464;10.882;2024-03-23T10:50:08;97145.72;;;9.11;60.42
86115;BME280;76768;49.464;10.882;2024-03-23T10:52:33;97148.66;;;9.21;60.37
86115;BME280;76768;49.464;10.882;2024-03-23T10:55:01;97142.50;;;9.13;59.63
86115;BME280;76768;49.464;10.882;2024-03-23T10:57:33;97154.03;;;9.11;58.65
86115;BME280;76768;49.464;10.882;2024-03-23T10:59:59;97148.06;;;9.13;58.49
86115;BME280;76768;49.464;10.882;2024-03-23T11:02:26;97157.06;;;9.17;59.94
86115;BME280;76768;49.464;10.882;2024-03-23T11:04:53;97161.47;;;9.31;59.00
86115;BME280;76768;49.464;10.882;2024-03-23T11:07:28;97155.75;;;9.22;57.85
86115;BME280;76768;49.464;10.882;2024-03-23T11:09:54;97163.03;;;9.15;57.56
86115;BME280;76768;49.464;10.882;2024-03-23T11:14:50;97152.66;;;9.20;58.89
86115;BME280;76768;49.464;10.882;2024-03-23T11:17:22;97146.03;;;9.30;57.75
86115;BME280;76768;49.464;10.882;2024-03-23T11:20:06;97154.38;;;9.42;56.33
86115;BME280;76768;49.464;10.882;2024-03-23T11:25:02;97154.00;;;9.28;56.68
86115;BME280;76768;49.464;10.882;2024-03-23T11:27:28;97160.09;;;9.23;56.57
86115;BME280;76768;49.464;10.882;2024-03-23T11:29:53;97171.19;;;9.23;56.58
86115;BME280;76768;49.464;10.882;2024-03-23T11:32:18;97159.16;;;9.13;56.97
86115;BME280;76768;49.464;10.882;2024-03-23T11:34:44;97172.13;;;9.16;56.25
86115;BME280;76768;49.464;10.882;2024-03-23T11:37:09;97174.13;;;9.15;56.26
86115;BME280;76768;49.464;10.882;2024-03-23T11:39:34;97165.56;;;9.10;57.10
86115;BME280;76768;49.464;10.882;2024-03-23T11:41:59;97168.59;;;9.15;56.08
86115;BME280;76768;49.464;10.882;2024-03-23T11:44:26;97179.81;;;9.25;58.28
86115;BME280;76768;49.464;10.882;2024-03-23T11:46:52;97191.63;;;9.58;57.16
86115;BME280;76768;49.464;10.882;2024-03-23T11:49:28;97190.69;;;9.77;53.73
86115;BME280;76768;49.464;10.882;2024-03-23T11:51:54;97193.69;;;9.83;53.55
86115;BME280;76768;49.464;10.882;2024-03-23T11:54:21;97200.69;;;9.87;53.97
86115;BME280;76768;49.464;10.882;2024-03-23T11:57:04;97190.59;;;9.81;53.13
86115;BME280;76768;49.464;10.882;2024-03-23T11:59:36;97191.28;;;9.85;51.45
86115;BME280;76768;49.464;10.882;2024-03-23T12:02:12;97185.88;;;10.07;49.82
86115;BME280;76768;49.464;10.882;2024-03-23T12:04:41;97167.19;;;10.49;50.39
86115;BME280;76768;49.464;10.882;2024-03-23T12:07:13;97170.81;;;10.72;50.29
86115;BME280;76768;49.464;10.882;2024-03-23T12:09:40;97171.34;;;10.92;48.22
86115;BME280;76768;49.464;10.882;2024-03-23T12:12:18;97174.91;;;10.80;47.22
86115;BME280;76768;49.464;10.882;2024-03-23T12:14:45;97186.03;;;10.80;49.35
86115;BME280;76768;49.464;10.882;2024-03-23T12:17:14;97175.31;;;11.04;48.07
86115;BME280;76768;49.464;10.882;2024-03-23T12:19:41;97174.41;;;11.20;46.92
86115;BME280;76768;49.464;10.882;2024-03-23T12:22:07;97179.22;;;11.41;46.00
86115;BME280;76768;49.464;10.882;2024-03-23T12:24:33;97170.88;;;11.41;43.47
86115;BME280;76768;49.464;10.882;2024-03-23T12:27:03;97168.50;;;11.52;44.79
86115;BME280;76768;49.464;10.882;2024-03-23T12:29:30;97182.06;;;11.50;42.83
86115;BME280;76768;49.464;10.882;2024-03-23T12:31:59;97152.69;;;11.49;43.28
86115;BME280;76768;49.464;10.882;2024-03-23T12:34:24;97165.00;;;11.61;43.19
86115;BME280;76768;49.464;10.882;2024-03-23T12:36:50;97146.31;;;11.61;42.99
86115;BME280;76768;49.464;10.882;2024-03-23T12:39:15;97142.16;;;11.66;42.18
86115;BME280;76768;49.464;10.882;2024-03-23T12:41:40;97142.22;;;11.53;43.78
86115;BME280;76768;49.464;10.882;2024-03-23T12:44:05;97140.91;;;11.45;44.05
86115;BME280;76768;49.464;10.882;2024-03-23T12:46:33;97138.19;;;11.32;42.88
86115;BME280;76768;49.464;10.882;2024-03-23T12:48:58;97143.06;;;11.06;43.40
86115;BME280;76768;49.464;10.882;2024-03-23T12:51:24;97158.59;;;10.82;44.11
86115;BME280;76768;49.464;10.882;2024-03-23T12:53:50;97156.69;;;10.79;44.35
86115;BME280;76768;49.464;10.882;2024-03-23T12:56:15;97139.38;;;10.75;45.49
86115;BME280;76768;49.464;10.882;2024-03-23T12:58:40;97131.44;;;10.73;45.60
86115;BME280;76768;49.464;10.882;2024-03-23T13:01:05;97136.50;;;10.65;45.71
86115;BME280;76768;49.464;10.882;2024-03-23T13:03:31;97128.59;;;10.64;45.05
86115;BME280;76768;49.464;10.882;2024-03-23T13:05:56;97120.78;;;10.72;44.75
86115;BME280;76768;49.464;10.882;2024-03-23T13:08:22;97131.09;;;10.84;43.47
86115;BME280;76768;49.464;10.882;2024-03-23T13:10:47;97131.38;;;11.11;44.96
86115;BME280;76768;49.464;10.882;2024-03-23T13:13:12;97130.31;;;11.31;43.89
86115;BME280;76768;49.464;10.882;2024-03-23T13:15:37;97123.34;;;11.48;43.72
86115;BME280;76768;49.464;10.882;2024-03-23T13:18:03;97129.00;;;11.66;42.31
86115;BME280;76768;49.464;10.882;2024-03-23T13:20:28;97126.88;;;11.71;42.09
86115;BME280;76768;49.464;10.882;2024-03-23T13:22:53;97119.84;;;11.57;41.82
86115;BME280;76768;49.464;10.882;2024-03-23T13:25:19;97118.22;;;11.69;41.76
86115;BME280;76768;49.464;10.882;2024-03-23T13:27:44;97129.19;;;11.85;41.18
86115;BME280;76768;49.464;10.882;2024-03-23T13:30:10;97127.31;;;12.13;41.85
86115;BME280;76768;49.464;10.882;2024-03-23T13:32:35;97124.69;;;12.19;41.97
86115;BME280;76768;49.464;10.882;2024-03-23T13:35:01;97124.56;;;12.22;40.31
86115;BME280;76768;49.464;10.882;2024-03-23T13:37:26;97115.34;;;12.34;41.00
86115;BME280;76768;49.464;10.882;2024-03-23T13:39:51;97118.28;;;12.40;39.08
86115;BME280;76768;49.464;10.882;2024-03-23T13:42:17;97114.44;;;12.47;40.31
86115;BME280;76768;49.464;10.882;2024-03-23T13:44:43;97105.88;;;12.32;39.72
86115;BME280;76768;49.464;10.882;2024-03-23T13:47:08;97107.44;;;12.33;40.83
86115;BME280;76768;49.464;10.882;2024-03-23T13:49:33;97108.53;;;12.35;40.75
86115;BME280;76768;49.464;10.882;2024-03-23T13:51:59;97111.66;;;12.47;39.93
86115;BME280;76768;49.464;10.882;2024-03-23T13:54:27;97101.72;;;12.36;39.36
86115;BME280;76768;49.464;10.882;2024-03-23T13:56:55;97090.28;;;12.44;40.17